Galesburg, IL (61401)

4:41 AM CDT on April 27, 2017 (GMT -0500)
N9VPV | | Change Station

Elev 777 ft 40.95 °N, 90.39 °W | Updated 7 minutes ago

Rain
Rain
40.6 °F
Feels Like 36 °F
N
6.0
Wind Variable Wind from NW
Gusts 10.0 mph

Today
High -- | Low -- °F
--% Chance of Precip.
Yesterday
High -- | Low -- °F
Precip. -- in
Pressure 29.47 in
Visibility 10.0 miles
Clouds Mostly Cloudy 900 ft
Mostly Cloudy 1500 ft
Overcast 5500 ft
Windchill 36 °F
Dew Point 39 °F
Humidity 94%
Rainfall 0.37 in
Snow Depth Not available.
6:04 AM 7:54 PM
New Moon, 1% visible
METAR KGBG 270935Z AUTO 29013G19KT 10SM -RA BKN009 BKN015 OVC055 05/04 A2947 RMK AO2 P0004 T00450040
Pressure 29.47 in
Visibility 10.0 miles
Clouds Mostly Cloudy 900 ft
Mostly Cloudy 1500 ft
Overcast 5500 ft
Windchill 36 °F
Dew Point 39 °F
Humidity 94%
Rainfall 0.37 in
Snow Depth Not available.
6:04 AM 7:54 PM
New Moon, 1% visible
METAR KGBG 270935Z AUTO 29013G19KT 10SM -RA BKN009 BKN015 OVC055 05/04 A2947 RMK AO2 P0004 T00450040

Get Severe Weather Alerts

Thanks for signing up!

Be on the lookout for a verification email in your inbox.

You'll start receiving the daily forecast at 8 AM.

×

10-Day Weather Forecast

Almanac

Astronomy

Apr. 27, 2017 Rise Set
Actual Time
Civil Twilight
Nautical Twilight
Astronomical Twilight
Moon
Length of Visible Light
Length of Day
Tomorrow will be .
, % of the Moon is Illuminated

Today's Extremes

State Highs State Lows

Community

WunderPhotos

WunderBlog® & News

Nearby

Air Quality

  Air Quality AQ Index Pollutant
Not available.

Snow Depth

Station Depth Elevation

Earthquake Activity

City Distance Mag. Time & Date
Minimum magnitude displayed is 2.5.

Coastal Water Temperatures

Place Temperature

Stations

Nearby Weather Stations

Station Location Temp. Windchill Dew Point Humidity Wind Precip. Elev Updated Type
                   

Watches & Warnings

There are currently no watches in effect.